Time;durP1;ratioP1;P1;durP2;ratioP2;P2;SDS_P1;SDS_P2;PMS_P1;PMS_P2;Temp;Humidity;BMP_temperature;BMP_pressure;BME280_temperature;BME280_humidity;BME280_pressure;Samples;Min_cycle;Max_cycle;Signal;HPM_P1;HPM_P2
2023/04/10 00:01:55;;;;;;;22.05;10.63;;;;;;;8.50;82.79;101933.81;5076362;28;20025;-72
2023/04/10 00:04:20;;;;;;;22.23;10.50;;;;;;;8.50;82.61;101925.91;5076218;28;20029;-72
2023/04/10 00:06:47;;;;;;;22.20;10.38;;;;;;;8.49;82.52;101916.22;5076385;28;20029;-72
2023/04/10 00:09:13;;;;;;;21.58;10.15;;;;;;;8.48;82.09;101909.19;5076048;28;20024;-72
2023/04/10 00:11:38;;;;;;;22.40;10.57;;;;;;;8.51;81.21;101904.88;5076197;28;20029;-72
2023/04/10 00:14:03;;;;;;;21.27;9.38;;;;;;;8.52;80.83;101905.78;5075967;28;20040;-71
2023/04/10 00:16:29;;;;;;;21.35;10.05;;;;;;;8.50;81.25;101896.94;5076201;28;20032;-71
2023/04/10 00:18:54;;;;;;;21.80;10.10;;;;;;;8.48;80.55;101891.63;5075881;28;20033;-71
2023/04/10 00:21:19;;;;;;;21.63;9.80;;;;;;;8.48;81.17;101893.38;5076016;28;20029;-71
2023/04/10 00:23:45;;;;;;;21.05;9.90;;;;;;;8.45;80.96;101885.38;5075976;28;20029;-72
2023/04/10 00:26:10;;;;;;;21.63;10.02;;;;;;;8.44;80.97;101883.53;5075668;28;20071;-72
2023/04/10 00:28:38;;;;;;;21.17;9.77;;;;;;;8.43;80.27;101884.38;5075925;28;20032;-71
2023/04/10 00:31:04;;;;;;;21.92;9.43;;;;;;;8.44;80.00;101884.47;5075575;28;20112;-71
2023/04/10 00:33:29;;;;;;;20.83;9.50;;;;;;;8.45;79.58;101878.34;5075565;28;20112;-71
2023/04/10 00:35:55;;;;;;;21.25;9.57;;;;;;;8.41;79.34;101872.91;5075932;28;20028;-71
2023/04/10 00:38:21;;;;;;;21.10;9.60;;;;;;;8.36;80.75;101875.41;5071393;28;20032;-71
2023/04/10 00:40:46;;;;;;;20.98;9.27;;;;;;;8.35;79.49;101871.88;5075453;28;20055;-71
2023/04/10 00:43:12;;;;;;;21.10;9.80;;;;;;;8.33;80.02;101870.03;5075620;28;20376;-71
2023/04/10 00:45:38;;;;;;;21.05;9.60;;;;;;;8.31;79.94;101866.47;5075383;28;20111;-71
2023/04/10 00:48:03;;;;;;;21.60;9.60;;;;;;;8.30;79.99;101862.94;5075550;28;20060;-72
2023/04/10 00:50:29;;;;;;;21.10;9.32;;;;;;;8.24;80.55;101861.88;5075134;28;20439;-71
2023/04/10 00:52:56;;;;;;;21.23;9.60;;;;;;;8.20;80.55;101855.63;5075223;28;20055;-71
2023/04/10 00:55:22;;;;;;;21.35;9.82;;;;;;;8.21;80.22;101857.38;5070438;28;20028;-71
2023/04/10 00:57:47;;;;;;;21.00;9.63;;;;;;;8.19;80.60;101859.09;5075202;28;20448;-72
2023/04/10 01:00:14;;;;;;;20.63;9.32;;;;;;;8.17;80.62;101861.69;5075091;28;20052;-70
2023/04/10 01:02:40;;;;;;;21.40;9.40;;;;;;;8.12;80.96;101859.75;5075154;28;20115;-71
2023/04/10 01:05:06;;;;;;;21.45;9.40;;;;;;;8.11;80.51;101860.59;5075293;28;20063;-70
2023/04/10 01:07:35;;;;;;;21.23;9.48;;;;;;;8.13;79.93;101864.19;5074953;28;20055;-71
2023/04/10 01:10:19;;;;;;;20.92;9.40;;;;;;;8.10;80.13;101857.06;5074994;28;20028;-71
2023/04/10 01:13:07;;;;;;;21.00;9.68;;;;;;;8.09;79.96;101854.41;5074997;28;20040;-71
2023/04/10 01:15:53;;;;;;;21.35;9.63;;;;;;;8.04;80.14;101856.91;5072838;28;20033;-71
2023/04/10 01:18:25;;;;;;;21.17;9.55;;;;;;;8.00;80.56;101848.00;5075072;28;20427;-73
2023/04/10 01:20:50;;;;;;;21.08;9.32;;;;;;;7.95;81.38;101836.44;5070850;28;20055;-71
2023/04/10 01:23:50;;;;;;;20.83;9.57;;;;;;;7.92;81.89;101843.34;5073331;28;20090;-70
2023/04/10 01:26:35;;;;;;;21.15;9.55;;;;;;;7.89;82.32;101848.50;5072774;28;20147;-70
2023/04/10 01:29:06;;;;;;;22.35;10.23;;;;;;;7.84;82.96;101840.47;5072026;28;20387;-70
2023/04/10 01:31:52;;;;;;;21.63;9.88;;;;;;;7.83;82.66;101849.19;5074389;28;20037;-70
2023/04/10 01:34:42;;;;;;;21.30;10.07;;;;;;;7.79;83.14;101842.97;5074337;28;20061;-70
2023/04/10 01:37:14;;;;;;;21.20;9.90;;;;;;;7.74;84.19;101835.75;5072557;28;20029;-71
2023/04/10 01:39:41;;;;;;;;;;;;;;;7.72;82.93;101846.25;5074811;28;20035;-71
2023/04/10 01:42:09;;;;;;;21.27;9.80;;;;;;;7.65;84.60;101839.88;5074389;28;20359;-70
2023/04/10 01:44:40;;;;;;;21.33;9.75;;;;;;;7.60;84.87;101838.84;5074211;28;20074;-70
2023/04/10 01:47:06;;;;;;;22.60;9.90;;;;;;;7.55;85.95;101829.91;5074254;28;20029;-71
2023/04/10 01:49:32;;;;;;;21.45;10.20;;;;;;;7.50;86.55;101824.50;5074064;28;20024;-71
2023/04/10 01:51:59;;;;;;;21.58;9.75;;;;;;;7.48;86.68;101830.53;5074373;28;20497;-70
2023/04/10 01:54:30;;;;;;;21.15;9.82;;;;;;;7.46;87.33;101827.88;5074136;28;20028;-71
2023/04/10 01:56:58;;;;;;;21.27;10.05;;;;;;;7.43;87.23;101821.63;5070751;28;20090;-70
2023/04/10 01:59:23;;;;;;;21.17;9.77;;;;;;;7.38;87.56;101817.94;5069077;28;20017;-72
2023/04/10 02:01:58;;;;;;;21.95;9.68;;;;;;;7.33;87.65;101810.78;5073880;28;20558;-73
2023/04/10 02:04:27;;;;;;;21.90;9.63;;;;;;;7.35;88.17;101805.56;5070124;28;20082;-71
2023/04/10 02:07:11;;;;;;;21.65;9.50;;;;;;;7.29;88.42;101806.25;5070039;28;20051;-71
2023/04/10 02:10:00;;;;;;;21.38;9.77;;;;;;;7.26;88.11;101795.63;5071976;28;20418;-71
2023/04/10 02:12:33;;;;;;;21.30;9.75;;;;;;;7.27;88.08;101797.44;5070180;28;20039;-71
2023/04/10 02:15:01;;;;;;;21.35;9.80;;;;;;;7.24;88.62;101792.06;5066519;28;20032;-71
2023/04/10 02:17:29;;;;;;;21.63;9.60;;;;;;;7.24;88.90;101789.44;5073848;28;20040;-71
2023/04/10 02:19:58;;;;;;;21.05;9.48;;;;;;;7.22;88.12;101792.84;5073787;28;20036;-71
2023/04/10 02:22:24;;;;;;;21.05;9.57;;;;;;;7.23;88.34;101786.75;5065759;28;20032;-70
2023/04/10 02:24:51;;;;;;;20.90;9.60;;;;;;;7.25;87.44;101782.44;5073461;28;20050;-71
2023/04/10 02:27:35;;;;;;;21.17;9.32;;;;;;;7.25;87.16;101785.97;5072089;28;20033;-72
2023/04/10 02:30:04;;;;;;;21.17;9.55;;;;;;;7.25;87.32;101778.09;5066256;28;20467;-71
2023/04/10 02:32:32;;;;;;;20.77;9.48;;;;;;;7.26;87.16;101779.84;5073331;28;20056;-71
2023/04/10 02:34:57;;;;;;;21.92;10.07;;;;;;;7.24;88.01;101786.81;5073248;28;20020;-71
2023/04/10 02:37:22;;;;;;;21.25;9.50;;;;;;;7.22;88.12;101782.34;5073176;28;20399;-71
2023/04/10 02:39:48;;;;;;;21.48;9.68;;;;;;;7.22;88.35;101783.22;5073348;28;20119;-72
2023/04/10 02:42:13;;;;;;;20.45;9.05;;;;;;;7.19;87.82;101780.50;5072966;28;20048;-73
2023/04/10 02:44:39;;;;;;;20.90;9.95;;;;;;;7.21;87.94;101778.81;5073112;28;20417;-71
2023/04/10 02:47:05;;;;;;;21.17;9.40;;;;;;;7.20;87.94;101787.53;5073319;28;20025;-71
2023/04/10 02:49:33;;;;;;;21.33;9.45;;;;;;;7.15;89.31;101787.41;5072900;28;20103;-71
2023/04/10 02:51:58;;;;;;;21.17;9.80;;;;;;;7.15;89.45;101782.13;5072904;28;20033;-71
2023/04/10 02:54:24;;;;;;;21.35;9.85;;;;;;;7.12;88.91;101783.75;5073131;28;20033;-71
2023/04/10 02:56:49;;;;;;;21.05;9.70;;;;;;;7.14;88.75;101780.34;5071723;28;20024;-70
2023/04/10 02:59:15;;;;;;;21.50;9.82;;;;;;;7.14;89.49;101776.84;5072792;28;20029;-71
2023/04/10 03:01:40;;;;;;;21.38;9.73;;;;;;;7.11;88.68;101772.34;5072964;28;20056;-71
2023/04/10 03:04:06;;;;;;;21.83;10.07;;;;;;;7.12;88.44;101773.25;5072814;28;20445;-71
2023/04/10 03:06:31;;;;;;;20.98;9.30;;;;;;;7.10;88.28;101769.69;5072791;28;20029;-72
2023/04/10 03:08:57;;;;;;;21.20;9.90;;;;;;;7.10;88.89;101774.94;5072998;28;20028;-72
2023/04/10 03:11:22;;;;;;;21.00;9.77;;;;;;;7.09;88.93;101773.13;5072795;28;20033;-72
2023/04/10 03:13:48;;;;;;;21.73;10.23;;;;;;;7.05;89.40;101779.13;5072803;28;20498;-72
2023/04/10 03:16:15;;;;;;;21.35;10.10;;;;;;;7.03;89.63;101783.47;5072707;28;20082;-73
2023/04/10 03:18:41;;;;;;;21.42;9.60;;;;;;;6.99;89.81;101790.38;5072097;28;20032;-72
2023/04/10 03:21:06;;;;;;;21.35;9.70;;;;;;;6.93;90.69;101793.66;5072742;28;20032;-72
2023/04/10 03:23:31;;;;;;;21.70;10.02;;;;;;;6.91;91.06;101791.81;5072570;28;20031;-72
2023/04/10 03:25:57;;;;;;;21.63;9.88;;;;;;;6.90;90.53;101788.31;5072580;28;20032;-72
2023/04/10 03:28:22;;;;;;;21.33;10.05;;;;;;;6.88;90.88;101787.34;5068687;28;20491;-72
2023/04/10 03:30:51;;;;;;;21.77;10.77;;;;;;;6.86;91.00;101783.78;5072413;28;20455;-72
2023/04/10 03:33:16;;;;;;;21.73;10.35;;;;;;;6.86;90.84;101788.13;5072364;28;20055;-73
2023/04/10 03:35:42;;;;;;;22.70;10.90;;;;;;;6.88;90.13;101776.84;5072798;28;20475;-72
2023/04/10 03:38:07;;;;;;;22.40;11.00;;;;;;;6.87;90.97;101777.66;5072380;28;20033;-73
2023/04/10 03:40:33;;;;;;;22.00;11.23;;;;;;;6.84;90.36;101767.06;5072432;28;20518;-72
2023/04/10 03:42:59;;;;;;;21.80;10.90;;;;;;;6.79;91.00;101764.28;5072684;28;20540;-72
2023/04/10 03:45:24;;;;;;;22.48;11.15;;;;;;;6.77;91.09;101765.06;5072415;28;20021;-72
2023/04/10 03:47:51;;;;;;;22.63;10.85;;;;;;;6.72;91.87;101761.38;5072430;28;20087;-72
2023/04/10 03:50:16;;;;;;;23.38;11.45;;;;;;;6.68;92.20;101764.75;5072491;28;20021;-72
2023/04/10 03:52:42;;;;;;;22.02;11.02;;;;;;;6.63;92.90;101751.44;5072211;28;20042;-72
2023/04/10 03:55:07;;;;;;;23.02;11.13;;;;;;;6.61;93.71;101754.03;5072316;28;20048;-72
2023/04/10 03:57:33;;;;;;;23.23;10.88;;;;;;;6.51;95.05;101754.53;5072472;28;20025;-72
2023/04/10 03:59:58;;;;;;;22.08;10.95;;;;;;;6.43;94.86;101762.13;5072256;28;20044;-72
2023/04/10 04:02:24;;;;;;;22.77;11.27;;;;;;;6.39;96.42;101761.97;5072668;28;20024;-72
2023/04/10 04:04:49;;;;;;;22.25;10.80;;;;;;;6.31;99.26;101750.31;5072149;28;20573;-72
2023/04/10 04:07:14;;;;;;;21.98;10.40;;;;;;;6.28;99.08;101749.34;5072193;28;20029;-72
2023/04/10 04:09:40;;;;;;;22.48;10.98;;;;;;;6.23;99.53;101750.94;5072662;28;20037;-72
2023/04/10 04:12:06;;;;;;;22.25;11.25;;;;;;;6.17;100.00;101740.19;5072256;28;20464;-72
2023/04/10 04:14:32;;;;;;;22.60;10.85;;;;;;;6.13;100.00;101748.81;5072079;28;20499;-72
2023/04/10 04:16:57;;;;;;;22.63;11.18;;;;;;;6.06;100.00;101742.41;5072314;28;20031;-72
2023/04/10 04:19:23;;;;;;;22.40;10.98;;;;;;;6.06;100.00;101744.16;5068004;28;20485;-72
2023/04/10 04:21:48;;;;;;;21.77;10.73;;;;;;;5.95;100.00;101738.47;5072031;28;20440;-72
2023/04/10 04:24:13;;;;;;;22.55;11.20;;;;;;;5.88;100.00;101733.81;5072275;28;20029;-72
2023/04/10 04:26:39;;;;;;;22.83;11.68;;;;;;;5.85;100.00;101731.06;5072047;28;20082;-72
2023/04/10 04:29:05;;;;;;;22.50;11.25;;;;;;;5.82;100.00;101737.09;5071903;28;20021;-71
2023/04/10 04:31:31;;;;;;;22.52;11.35;;;;;;;5.79;100.00;101733.47;5075245;28;20024;-72
2023/04/10 04:33:57;;;;;;;22.95;11.60;;;;;;;5.79;100.00;101726.50;5075577;28;20035;-72
2023/04/10 04:36:22;;;;;;;22.85;11.30;;;;;;;5.77;100.00;101725.56;5075591;28;20024;-72
2023/04/10 04:38:47;;;;;;;22.80;11.40;;;;;;;5.75;100.00;101727.19;5075714;28;20055;-72
2023/04/10 04:41:14;;;;;;;23.10;12.00;;;;;;;5.73;100.00;101726.25;5075575;28;20048;-72
2023/04/10 04:43:40;;;;;;;23.33;11.82;;;;;;;5.69;100.00;101724.34;5075861;28;20070;-72
2023/04/10 04:46:05;;;;;;;24.10;12.23;;;;;;;5.72;100.00;101724.47;5075452;28;20467;-72
2023/04/10 04:48:30;;;;;;;23.52;12.55;;;;;;;5.73;100.00;101726.25;5075283;28;20029;-72
2023/04/10 04:50:56;;;;;;;23.73;12.35;;;;;;;5.75;100.00;101715.00;5075450;28;20024;-72
2023/04/10 04:53:21;;;;;;;23.30;12.02;;;;;;;5.77;100.00;101722.94;5075117;28;20040;-72
2023/04/10 04:55:47;;;;;;;23.23;12.23;;;;;;;5.79;100.00;101718.63;5075254;28;20395;-72
2023/04/10 04:58:12;;;;;;;23.90;12.30;;;;;;;5.83;100.00;101722.25;5075385;28;20112;-71
2023/04/10 05:00:37;;;;;;;23.75;12.02;;;;;;;5.81;100.00;101719.59;5075101;28;20129;-71
2023/04/10 05:03:03;;;;;;;23.38;12.00;;;;;;;5.85;100.00;101724.09;5073851;28;20058;-71
2023/04/10 05:05:28;;;;;;;23.15;11.68;;;;;;;5.88;100.00;101716.34;5075295;28;20020;-71
2023/04/10 05:07:53;;;;;;;23.02;11.95;;;;;;;5.90;100.00;101714.66;5075032;28;20064;-71
2023/04/10 05:10:19;;;;;;;23.77;12.00;;;;;;;5.91;100.00;101703.34;5074992;28;20036;-71
2023/04/10 05:12:44;;;;;;;23.17;11.82;;;;;;;5.94;100.00;101705.16;5075263;28;20059;-71
2023/04/10 05:15:10;;;;;;;23.52;11.43;;;;;;;5.98;100.00;101695.72;5075126;28;20111;-71
2023/04/10 05:17:35;;;;;;;22.80;11.70;;;;;;;6.01;100.00;101696.72;5074896;28;20112;-71
2023/04/10 05:20:00;;;;;;;23.60;12.20;;;;;;;6.01;100.00;101694.09;5075002;28;20029;-71
2023/04/10 05:22:27;;;;;;;22.77;11.65;;;;;;;6.05;100.00;101696.00;5074805;28;20051;-71
2023/04/10 05:24:54;;;;;;;22.67;11.73;;;;;;;6.09;100.00;101689.13;5074862;28;20115;-72
2023/04/10 05:27:20;;;;;;;23.25;11.52;;;;;;;6.13;100.00;101687.50;5074556;28;20032;-71
2023/04/10 05:29:46;;;;;;;22.73;11.73;;;;;;;6.16;100.00;101691.16;5074527;28;20029;-71
2023/04/10 05:32:12;;;;;;;23.08;11.80;;;;;;;6.19;100.00;101685.09;5074544;28;20025;-71
2023/04/10 05:34:37;;;;;;;23.13;11.95;;;;;;;6.22;100.00;101686.13;5074511;28;20450;-72
2023/04/10 05:37:03;;;;;;;22.45;11.48;;;;;;;6.26;100.00;101693.25;5074421;28;20036;-72
2023/04/10 05:39:28;;;;;;;22.90;11.68;;;;;;;6.32;100.00;101691.69;5074618;28;20481;-72
2023/04/10 05:41:53;;;;;;;22.48;11.23;;;;;;;6.36;100.00;101685.69;5073679;28;20076;-72
2023/04/10 05:44:19;;;;;;;23.27;11.30;;;;;;;6.40;100.00;101693.72;5073069;28;20402;-72
2023/04/10 05:46:44;;;;;;;22.98;11.32;;;;;;;6.43;100.00;101685.97;5074522;28;20060;-72
2023/04/10 05:49:10;;;;;;;22.77;11.20;;;;;;;6.49;100.00;101685.28;5074159;28;20021;-72
2023/04/10 05:51:35;;;;;;;22.90;12.25;;;;;;;6.56;100.00;101692.53;5074047;28;20020;-72
2023/04/10 05:54:00;;;;;;;22.77;11.45;;;;;;;6.61;100.00;101695.31;5074284;28;20035;-72
2023/04/10 05:56:25;;;;;;;22.65;11.18;;;;;;;6.69;100.00;101698.22;5074170;28;20085;-72
2023/04/10 05:58:51;;;;;;;23.08;10.95;;;;;;;6.75;100.00;101698.41;5074065;28;20036;-72
2023/04/10 06:01:16;;;;;;;22.23;11.00;;;;;;;6.83;100.00;101701.28;5074195;28;20032;-71
2023/04/10 06:03:42;;;;;;;21.85;10.38;;;;;;;6.91;100.00;101698.06;5073805;28;20035;-71
2023/04/10 06:06:07;;;;;;;22.42;11.00;;;;;;;7.02;100.00;101695.81;5074328;28;20029;-71
2023/04/10 06:08:33;;;;;;;22.30;10.45;;;;;;;7.09;100.00;101699.50;5072113;28;20055;-71
2023/04/10 06:10:59;;;;;;;22.77;11.00;;;;;;;7.17;100.00;101697.16;5074757;28;20114;-70
2023/04/10 06:13:26;;;;;;;22.30;11.35;;;;;;;7.25;100.00;101693.00;5063189;28;20483;-70
2023/04/10 06:15:51;;;;;;;21.50;10.45;;;;;;;7.32;99.23;101698.53;5064869;28;20040;-69
2023/04/10 06:18:17;;;;;;;21.85;11.10;;;;;;;7.40;98.95;101690.00;5079050;28;20070;-70
2023/04/10 06:20:42;;;;;;;22.20;10.95;;;;;;;7.46;97.00;101698.94;5067111;28;20031;-70
2023/04/10 06:23:07;;;;;;;22.33;10.63;;;;;;;7.55;97.70;101689.56;5072516;28;20505;-71
2023/04/10 06:25:33;;;;;;;22.30;10.43;;;;;;;7.62;96.64;101686.25;5069457;28;20491;-71
2023/04/10 06:27:58;;;;;;;21.50;10.40;;;;;;;7.67;93.73;101680.28;5068178;28;20432;-70
2023/04/10 06:30:24;;;;;;;21.65;10.10;;;;;;;7.76;89.07;101670.88;5070781;28;20059;-71
2023/04/10 06:32:49;;;;;;;21.25;10.05;;;;;;;7.85;89.53;101672.03;5067508;28;20029;-71
2023/04/10 06:35:14;;;;;;;21.58;10.35;;;;;;;7.94;85.91;101658.22;5068591;28;20044;-69
2023/04/10 06:37:41;;;;;;;21.50;10.30;;;;;;;8.03;85.91;101666.38;5068455;28;20078;-72
2023/04/10 06:40:08;;;;;;;21.23;9.75;;;;;;;8.11;83.06;101661.34;5069414;28;20024;-71
2023/04/10 06:42:35;;;;;;;21.25;9.80;;;;;;;8.19;81.61;101653.66;5069514;28;20090;-72
2023/04/10 06:45:00;;;;;;;21.13;9.55;;;;;;;8.27;82.50;101649.50;5064538;28;20025;-71
2023/04/10 06:47:26;;;;;;;22.13;9.77;;;;;;;8.34;80.84;101643.53;5068948;28;20043;-72
2023/04/10 06:49:51;;;;;;;20.83;9.63;;;;;;;8.44;79.74;101646.38;5068901;28;20547;-71
2023/04/10 06:52:17;;;;;;;21.50;9.75;;;;;;;8.51;78.51;101645.72;5071391;28;20556;-71
2023/04/10 06:54:42;;;;;;;21.17;9.93;;;;;;;8.55;76.05;101627.41;5063959;28;20017;-70
2023/04/10 06:57:08;;;;;;;20.77;9.60;;;;;;;8.60;75.80;101626.63;5068500;28;20074;-71
2023/04/10 06:59:34;;;;;;;20.83;9.23;;;;;;;8.65;74.53;101632.88;5068279;28;20029;-70
2023/04/10 07:02:01;;;;;;;21.67;9.38;;;;;;;8.70;74.38;101624.25;5068266;28;20380;-70
2023/04/10 07:04:26;;;;;;;21.10;9.73;;;;;;;8.73;75.43;101621.66;5070675;28;20428;-70
2023/04/10 07:06:52;;;;;;;22.42;10.02;;;;;;;8.76;73.35;101619.97;5071293;28;20032;-70
2023/04/10 07:09:17;;;;;;;21.35;10.02;;;;;;;8.77;74.31;101612.09;5066383;28;20029;-69
2023/04/10 07:11:43;;;;;;;21.42;9.68;;;;;;;8.83;73.01;101612.25;5068643;28;20164;-71
2023/04/10 07:14:08;;;;;;;21.00;9.80;;;;;;;8.88;73.88;101607.06;5070147;28;20127;-71
2023/04/10 07:16:33;;;;;;;21.27;9.90;;;;;;;8.88;72.94;101600.09;5067538;28;20113;-70
2023/04/10 07:18:59;;;;;;;21.15;10.00;;;;;;;8.96;73.93;101602.88;5071329;28;20036;-71
2023/04/10 07:21:25;;;;;;;20.85;9.73;;;;;;;9.01;72.17;101598.63;5072959;28;20064;-71
2023/04/10 07:23:51;;;;;;;21.40;9.93;;;;;;;9.05;72.57;101595.16;5071649;28;20120;-70
2023/04/10 07:26:17;;;;;;;20.83;9.73;;;;;;;9.11;71.19;101585.63;5068369;28;20159;-71
2023/04/10 07:28:42;;;;;;;20.42;9.50;;;;;;;9.15;71.71;101587.47;5066185;28;20017;-71
2023/04/10 07:31:09;;;;;;;20.45;9.57;;;;;;;9.22;70.61;101576.22;5063583;28;20045;-72
2023/04/10 07:33:35;;;;;;;20.95;9.50;;;;;;;9.34;70.72;101583.50;5063626;28;20146;-71
2023/04/10 07:36:02;;;;;;;20.83;9.70;;;;;;;9.47;71.02;101576.72;5064168;28;20520;-72
2023/04/10 07:38:27;;;;;;;20.05;9.02;;;;;;;9.58;67.96;101569.88;5064101;28;20070;-71
2023/04/10 07:40:57;;;;;;;21.35;9.45;;;;;;;9.62;65.17;101579.66;5059967;28;20041;-71
2023/04/10 07:43:23;;;;;;;20.33;9.00;;;;;;;9.73;67.69;101562.28;5061395;28;20018;-71
2023/04/10 07:45:48;;;;;;;20.70;9.07;;;;;;;9.85;68.36;101566.03;5061378;28;20463;-71
2023/04/10 07:48:14;;;;;;;20.00;8.88;;;;;;;9.90;65.70;101559.06;5061470;28;20087;-72
2023/04/10 07:50:40;;;;;;;20.30;8.70;;;;;;;10.05;65.13;101545.28;5072512;28;20029;-72
2023/04/10 07:53:08;;;;;;;20.98;9.20;;;;;;;10.24;65.11;101533.25;5071210;28;20033;-71
2023/04/10 07:55:41;;;;;;;20.75;8.80;;;;;;;10.55;64.06;101552.28;5072180;28;20033;-71
2023/04/10 07:58:06;;;;;;;19.95;8.82;;;;;;;10.74;61.73;101549.03;5072433;28;20063;-72
2023/04/10 08:00:32;;;;;;;20.33;8.80;;;;;;;10.97;63.18;101535.28;5072416;28;20115;-72
2023/04/10 08:02:58;;;;;;;20.35;9.00;;;;;;;11.41;63.43;101534.94;5072215;28;20021;-71
2023/04/10 08:05:24;;;;;;;20.45;8.77;;;;;;;11.48;61.37;101526.19;5075617;28;20029;-72
2023/04/10 08:07:49;;;;;;;20.83;8.80;;;;;;;11.61;60.24;101523.69;5076575;28;20024;-72
2023/04/10 08:10:15;;;;;;;19.70;8.30;;;;;;;11.68;59.76;101526.44;5076106;28;20491;-72
2023/04/10 08:12:40;;;;;;;20.02;8.90;;;;;;;11.69;61.05;101522.00;5076047;28;20036;-72
2023/04/10 08:15:06;;;;;;;20.02;8.45;;;;;;;11.82;61.62;101521.28;5076143;28;20452;-72
2023/04/10 08:17:31;;;;;;;19.98;8.65;;;;;;;11.82;60.14;101509.78;5075953;28;20386;-72
2023/04/10 08:19:56;;;;;;;19.95;8.60;;;;;;;11.73;60.09;101510.56;5076045;28;20102;-72
2023/04/10 08:22:22;;;;;;;19.70;8.27;;;;;;;11.67;58.92;101518.47;5075827;28;20032;-71
2023/04/10 08:24:47;;;;;;;20.00;8.27;;;;;;;11.64;59.44;101506.06;5075765;28;20044;-71
2023/04/10 08:27:14;;;;;;;19.58;8.57;;;;;;;11.61;58.96;101518.41;5076037;28;20104;-72
2023/04/10 08:29:40;;;;;;;19.85;8.60;;;;;;;11.59;57.67;101515.75;5071916;28;20036;-72
2023/04/10 08:32:05;;;;;;;20.05;8.85;;;;;;;11.71;59.33;101522.94;5075505;28;20036;-72
2023/04/10 08:34:30;;;;;;;20.02;8.43;;;;;;;11.98;59.12;101516.16;5075700;28;20053;-72
2023/04/10 08:36:56;;;;;;;20.13;8.38;;;;;;;12.17;59.13;101515.44;5075566;28;20052;-72
2023/04/10 08:39:21;;;;;;;20.10;8.55;;;;;;;12.20;58.50;101510.19;5075714;28;20056;-72
2023/04/10 08:41:47;;;;;;;20.30;8.30;;;;;;;12.22;57.35;101499.59;5075520;28;20075;-72
2023/04/10 08:44:12;;;;;;;20.27;8.30;;;;;;;12.28;57.92;101496.97;5075442;28;20104;-72
2023/04/10 08:46:42;;;;;;;19.58;7.93;;;;;;;12.29;58.66;101493.44;5075404;28;20021;-72
2023/04/10 08:49:09;;;;;;;19.30;8.15;;;;;;;12.38;58.17;101497.94;5075463;28;20028;-72
2023/04/10 08:51:41;;;;;;;19.65;8.25;;;;;;;12.48;57.38;101497.13;5075258;28;20029;-72
2023/04/10 08:54:13;;;;;;;20.05;8.18;;;;;;;12.54;57.50;101496.28;5075191;28;20479;-72
2023/04/10 08:56:41;;;;;;;19.30;8.05;;;;;;;12.49;59.24;101506.81;5071393;28;20028;-72
2023/04/10 08:59:07;;;;;;;19.40;8.10;;;;;;;12.55;58.51;101501.59;5074901;28;20390;-72
2023/04/10 09:01:33;;;;;;;19.80;8.40;;;;;;;12.49;57.15;101498.00;5075067;28;20025;-71
2023/04/10 09:03:59;;;;;;;19.52;8.32;;;;;;;12.49;57.48;101496.22;5075335;28;20112;-71
2023/04/10 09:06:24;;;;;;;20.63;8.40;;;;;;;12.60;57.72;101495.44;5074943;28;20454;-71
2023/04/10 09:08:50;;;;;;;20.92;8.45;;;;;;;12.62;57.90;101488.38;5073477;28;20032;-72
2023/04/10 09:11:15;;;;;;;19.88;8.38;;;;;;;12.72;56.59;101485.75;5071179;28;20039;-71
2023/04/10 09:13:43;;;;;;;19.75;8.23;;;;;;;12.84;57.32;101479.66;5074397;28;20112;-72
2023/04/10 09:16:10;;;;;;;19.45;8.15;;;;;;;12.90;57.34;101485.00;5072294;28;20115;-71
2023/04/10 09:18:47;;;;;;;19.80;8.25;;;;;;;13.02;57.26;101486.81;5074642;28;20029;-72
2023/04/10 09:21:15;;;;;;;19.15;8.10;;;;;;;13.10;57.11;101476.22;5074667;28;20077;-72
2023/04/10 09:23:43;;;;;;;19.15;8.20;;;;;;;13.08;56.15;101468.25;5074536;28;20379;-72
2023/04/10 09:26:26;;;;;;;19.25;7.80;;;;;;;13.19;57.75;101464.75;5074887;28;20439;-72
2023/04/10 09:28:56;;;;;;;19.73;7.60;;;;;;;13.17;56.13;101461.22;5071305;28;20048;-72
2023/04/10 09:31:29;;;;;;;19.45;7.70;;;;;;;13.09;57.17;101455.84;5074649;28;20107;-72
2023/04/10 09:34:07;;;;;;;19.77;8.00;;;;;;;13.14;56.97;101459.44;5074399;28;20043;-72
2023/04/10 09:36:32;;;;;;;19.40;8.10;;;;;;;13.07;57.21;101445.22;5074768;28;20028;-72
2023/04/10 09:38:57;;;;;;;19.50;8.00;;;;;;;13.02;57.14;101446.13;5074473;28;20087;-72
2023/04/10 09:41:23;;;;;;;18.73;7.68;;;;;;;12.98;57.32;101433.72;5074332;28;20127;-72
2023/04/10 09:43:48;;;;;;;19.25;8.05;;;;;;;13.07;59.45;101428.44;5073221;28;20475;-72
2023/04/10 09:46:25;;;;;;;19.15;7.70;;;;;;;13.14;58.38;101421.38;5074276;28;20057;-73
2023/04/10 09:48:55;;;;;;;19.17;7.80;;;;;;;13.17;58.00;101418.75;5071023;28;20051;-73
2023/04/10 09:51:31;;;;;;;19.80;7.95;;;;;;;13.16;57.60;101409.88;5070985;28;20024;-73
2023/04/10 09:53:56;;;;;;;19.75;7.97;;;;;;;13.14;57.13;101408.13;5074129;28;20485;-73
2023/04/10 09:56:25;;;;;;;19.83;7.72;;;;;;;13.28;59.85;101414.34;5072706;28;20119;-74
2023/04/10 09:58:52;;;;;;;19.30;7.95;;;;;;;13.51;57.16;101411.75;5074286;28;20483;-73
2023/04/10 10:01:18;;;;;;;18.83;7.57;;;;;;;13.62;57.33;101413.56;5070178;28;20077;-73
2023/04/10 10:03:45;;;;;;;19.67;7.55;;;;;;;13.82;57.53;101411.78;5073820;28;20471;-73
2023/04/10 10:06:10;;;;;;;18.77;7.60;;;;;;;13.98;57.17;101398.47;5074093;28;20041;-73
2023/04/10 10:08:36;;;;;;;18.98;7.50;;;;;;;14.12;55.11;101410.88;5073820;28;20380;-72
2023/04/10 10:11:07;;;;;;;19.10;7.63;;;;;;;14.13;54.31;101404.66;5073809;28;20032;-72
2023/04/10 10:13:52;;;;;;;18.33;7.18;;;;;;;14.34;55.41;101405.50;5074083;28;20443;-72
2023/04/10 10:16:25;;;;;;;19.25;7.57;;;;;;;14.47;55.44;101393.97;5070218;28;20120;-72
2023/04/10 10:19:02;;;;;;;19.48;7.40;;;;;;;14.46;54.36;101376.22;5070241;28;20099;-72
2023/04/10 10:21:29;;;;;;;18.77;6.95;;;;;;;14.80;54.53;101385.88;5071254;28;20033;-72
2023/04/10 10:23:58;;;;;;;17.90;6.90;;;;;;;15.13;53.60;101381.25;5073418;28;20056;-72
2023/04/10 10:26:24;;;;;;;18.25;6.95;;;;;;;15.18;53.08;101371.47;5073739;28;20063;-72
2023/04/10 10:28:54;;;;;;;17.95;6.75;;;;;;;15.97;53.56;101373.53;5073493;28;20060;-72
2023/04/10 10:31:23;;;;;;;18.02;6.50;;;;;;;16.67;49.18;101369.22;5065657;28;20468;-72
2023/04/10 10:33:54;;;;;;;18.77;6.45;;;;;;;16.48;48.39;101360.53;5069898;28;20116;-72
2023/04/10 10:36:21;;;;;;;17.60;6.50;;;;;;;16.28;48.65;101366.13;5069862;28;20372;-72
2023/04/10 10:38:58;;;;;;;17.63;6.40;;;;;;;16.39;49.65;101356.19;5069253;28;20028;-72
2023/04/10 10:41:31;;;;;;;17.63;6.32;;;;;;;16.47;49.86;101353.44;5069921;28;20053;-72
2023/04/10 10:44:30;;;;;;;17.40;6.15;;;;;;;16.52;48.17;101345.38;5073171;28;20021;-72
2023/04/10 10:47:18;;;;;;;18.30;6.15;;;;;;;16.08;50.16;101342.31;5070469;28;20037;-72
2023/04/10 10:49:57;;;;;;;18.15;6.40;;;;;;;16.03;49.43;101336.13;5073119;28;20024;-72
2023/04/10 10:52:39;;;;;;;17.35;6.25;;;;;;;15.93;50.25;101331.81;5069709;28;20490;-72
2023/04/10 10:55:27;;;;;;;17.88;6.20;;;;;;;16.20;49.22;101325.31;5073159;28;20028;-72
2023/04/10 10:57:55;;;;;;;17.23;6.10;;;;;;;16.27;49.53;101318.13;5069621;28;20025;-73
2023/04/10 11:00:22;;;;;;;18.30;6.20;;;;;;;16.41;47.75;101313.50;5073104;28;20027;-73
2023/04/10 11:03:23;;;;;;;18.92;6.10;;;;;;;16.47;47.61;101310.75;5068960;28;20383;-73
2023/04/10 11:06:19;;;;;;;16.05;5.70;;;;;;;16.90;46.87;101310.19;5011288;28;20109;-73
2023/04/10 11:08:51;;;;;;;17.08;5.85;;;;;;;17.06;47.17;101302.81;5059693;28;20467;-73
2023/04/10 11:11:19;;;;;;;16.92;5.82;;;;;;;17.17;45.80;101304.44;5068995;28;20020;-73
2023/04/10 11:13:56;;;;;;;15.48;5.60;;;;;;;17.24;45.51;101300.75;5072660;28;20024;-73
2023/04/10 11:16:43;;;;;;;17.10;5.72;;;;;;;17.81;45.16;101299.81;5069347;28;20020;-73
2023/04/10 11:19:11;;;;;;;15.70;5.63;;;;;;;18.19;44.49;101295.53;5067506;28;20052;-73
2023/04/10 11:22:04;;;;;;;17.30;5.80;;;;;;;18.39;44.55;101279.06;5071290;28;20471;-72
2023/04/10 11:24:50;;;;;;;17.00;5.47;;;;;;;19.18;43.10;101277.31;5070428;28;20024;-72